createdAt,value
2022-12-28T00:00:08.558Z,99518.47
2022-12-28T00:01:16.307Z,99507.22
2022-12-28T00:02:18.678Z,99517.00
2022-12-28T00:03:20.679Z,99519.50
2022-12-28T00:04:22.560Z,99512.31
2022-12-28T00:05:24.498Z,99512.50
2022-12-28T00:06:26.535Z,99506.25
2022-12-28T00:07:28.539Z,99510.22
2022-12-28T00:08:30.541Z,99506.25
2022-12-28T00:09:32.340Z,99507.44
2022-12-28T00:11:07.688Z,99509.03
2022-12-28T00:11:56.117Z,99515.53
2022-12-28T00:12:59.083Z,99509.59
2022-12-28T00:14:01.320Z,99507.06
2022-12-28T00:15:03.444Z,99505.47
2022-12-28T00:16:10.367Z,99499.34
2022-12-28T00:17:12.168Z,99502.88
2022-12-28T00:18:14.063Z,99507.56
2022-12-28T00:19:16.424Z,99505.47
2022-12-28T00:20:24.396Z,99506.13
2022-12-28T00:21:27.282Z,99497.94
2022-12-28T00:22:29.108Z,99499.28
2022-12-28T00:23:31.257Z,99495.16
2022-12-28T00:24:33.209Z,99500.94
2022-12-28T00:25:35.994Z,99493.19
2022-12-28T00:26:37.892Z,99496.81
2022-12-28T00:27:39.749Z,99488.19
2022-12-28T00:28:42.042Z,99495.22
2022-12-28T00:29:43.872Z,99491.84
2022-12-28T00:30:45.900Z,99494.84
2022-12-28T00:31:47.850Z,99491.66
2022-12-28T00:32:52.574Z,99486.22
2022-12-28T00:33:54.660Z,99490.31
2022-12-28T00:34:56.624Z,99481.69
2022-12-28T00:36:00.925Z,99480.91
2022-12-28T00:37:08.701Z,99474.72
2022-12-28T00:38:14.333Z,99481.31
2022-12-28T00:39:16.927Z,99479.56
2022-12-28T00:40:23.789Z,99473.38
2022-12-28T00:41:26.141Z,99476.97
2022-12-28T00:42:27.969Z,99469.03
2022-12-28T00:43:29.803Z,99465.34
2022-12-28T00:44:33.190Z,99458.59
2022-12-28T00:45:35.142Z,99455.06
2022-12-28T00:46:37.024Z,99460.44
2022-12-28T00:47:38.904Z,99460.19
2022-12-28T00:48:40.862Z,99458.84
2022-12-28T00:49:42.812Z,99460.84
2022-12-28T00:50:45.129Z,99460.38
2022-12-28T00:51:47.318Z,99456.25
2022-12-28T00:52:49.160Z,99447.44
2022-12-28T00:53:53.322Z,99451.09
2022-12-28T00:54:55.190Z,99453.75
2022-12-28T00:56:04.571Z,99453.00
2022-12-28T00:57:06.497Z,99454.47
2022-12-28T00:58:08.565Z,99460.94
2022-12-28T00:59:10.656Z,99454.50
2022-12-28T01:00:12.858Z,99458.72
2022-12-28T01:01:17.904Z,99455.16
2022-12-28T01:02:19.878Z,99464.44
2022-12-28T01:03:24.085Z,99464.97
2022-12-28T01:04:26.616Z,99456.88
2022-12-28T01:05:28.614Z,99449.19
2022-12-28T01:06:30.499Z,99454.91
2022-12-28T01:07:32.623Z,99455.47
2022-12-28T01:08:36.214Z,99458.06
2022-12-28T01:09:38.108Z,99448.66
2022-12-28T01:10:40.045Z,99458.19
2022-12-28T01:11:42.246Z,99458.94
2022-12-28T01:12:44.288Z,99458.19
2022-12-28T01:13:47.305Z,99461.13
2022-12-28T01:14:49.196Z,99455.47
2022-12-28T01:15:52.102Z,99453.81
2022-12-28T01:16:55.179Z,99451.22
2022-12-28T01:18:01.810Z,99448.56
2022-12-28T01:19:09.204Z,99450.03
2022-12-28T01:20:11.445Z,99448.00
2022-12-28T01:21:14.835Z,99446.00
2022-12-28T01:22:17.674Z,99446.81
2022-12-28T01:23:22.836Z,99439.22
2022-12-28T01:24:24.622Z,99441.59
2022-12-28T01:25:26.481Z,99448.84
2022-12-28T01:26:28.863Z,99436.56
2022-12-28T01:27:30.733Z,99434.97
2022-12-28T01:28:32.621Z,99434.06
2022-12-28T01:29:34.456Z,99433.38
2022-12-28T01:30:38.994Z,99430.84
2022-12-28T01:31:42.486Z,99434.31
2022-12-28T01:32:47.527Z,99427.75
2022-12-28T01:33:49.462Z,99430.16
2022-12-28T01:34:51.655Z,99439.28
2022-12-28T01:35:53.504Z,99423.72
2022-12-28T01:36:55.411Z,99421.31
2022-12-28T01:37:57.750Z,99430.59
2022-12-28T01:39:01.199Z,99420.25
2022-12-28T01:40:03.210Z,99415.09
2022-12-28T01:41:12.195Z,99414.75
2022-12-28T01:42:18.155Z,99420.53
2022-12-28T01:43:29.324Z,99426.38
2022-12-28T01:44:37.697Z,99419.19
2022-12-28T01:45:39.804Z,99420.53
2022-12-28T01:46:47.851Z,99421.44
2022-12-28T01:47:51.028Z,99421.16
2022-12-28T01:48:56.899Z,99425.34
2022-12-28T01:50:10.628Z,99419.59
2022-12-28T01:51:15.636Z,99418.00
2022-12-28T01:52:32.781Z,99417.47
2022-12-28T01:53:34.653Z,99416.69
2022-12-28T01:54:45.787Z,99417.31
2022-12-28T01:55:49.011Z,99403.38
2022-12-28T01:56:51.464Z,99400.63
2022-12-28T01:58:02.715Z,99409.50
2022-12-28T01:59:04.614Z,99407.53
2022-12-28T02:00:11.770Z,99412.03
2022-12-28T02:01:21.859Z,99407.41
2022-12-28T02:02:23.965Z,99411.44
2022-12-28T02:03:29.356Z,99406.72
2022-12-28T02:04:31.784Z,99410.97
2022-12-28T02:05:36.970Z,99403.38
2022-12-28T02:06:41.359Z,99409.63
2022-12-28T02:07:47.948Z,99398.34
2022-12-28T02:08:53.945Z,99401.41
2022-12-28T02:10:40.600Z,99403.06
2022-12-28T02:11:19.007Z,99389.69
2022-12-28T02:12:21.118Z,99395.97
2022-12-28T02:13:24.159Z,99390.13
2022-12-28T02:14:46.884Z,99385.63
2022-12-28T02:15:49.348Z,99388.66
2022-12-28T02:16:52.262Z,99390.06
2022-12-28T02:17:54.188Z,99396.47
2022-12-28T02:18:56.214Z,99389.59
2022-12-28T02:19:58.629Z,99384.81
2022-12-28T02:21:09.600Z,99397.03
2022-12-28T02:22:14.475Z,99393.72
2022-12-28T02:23:35.151Z,99396.13
2022-12-28T02:25:12.053Z,99398.06
2022-12-28T02:26:32.564Z,99394.25
2022-12-28T02:27:37.427Z,99385.78
2022-12-28T02:28:39.187Z,99391.66
2022-12-28T02:29:49.256Z,99390.59
2022-12-28T02:30:57.312Z,99403.03
2022-12-28T02:32:05.082Z,99397.38
2022-12-28T02:33:11.822Z,99402.34
2022-12-28T02:34:13.663Z,99386.28
2022-12-28T02:35:23.452Z,99404.41
2022-12-28T02:36:34.953Z,99406.25
2022-12-28T02:38:04.673Z,99410.44
2022-12-28T02:39:13.704Z,99405.06
2022-12-28T02:40:25.231Z,99411.09
2022-12-28T02:41:27.139Z,99396.44
2022-12-28T02:42:30.176Z,99401.00
2022-12-28T02:43:32.791Z,99399.28
2022-12-28T02:44:54.184Z,99393.84
2022-12-28T02:46:14.832Z,99396.75
2022-12-28T02:47:36.571Z,99402.31
2022-12-28T02:49:00.671Z,99411.38
2022-12-28T02:50:08.128Z,99405.66
2022-12-28T02:51:28.365Z,99402.88
2022-12-28T02:52:37.840Z,99403.13
2022-12-28T02:53:41.463Z,99401.13
2022-12-28T02:55:05.118Z,99403.41
2022-12-28T02:56:19.160Z,99408.91
2022-12-28T02:57:39.059Z,99399.38
2022-12-28T02:58:48.066Z,99393.31
2022-12-28T03:00:00.069Z,99405.66
2022-12-28T03:01:17.239Z,99397.63
2022-12-28T03:02:29.162Z,99395.19
2022-12-28T03:03:46.372Z,99393.59
2022-12-28T03:04:49.087Z,99397.78
2022-12-28T03:06:19.124Z,99397.56
2022-12-28T03:07:46.189Z,99391.56
2022-12-28T03:08:48.251Z,99394.03
2022-12-28T03:10:19.842Z,99389.69
2022-12-28T03:11:27.255Z,99382.78
2022-12-28T03:12:31.802Z,99392.28
2022-12-28T03:13:45.643Z,99392.19
2022-12-28T03:14:58.108Z,99391.66
2022-12-28T03:16:05.270Z,99385.22
2022-12-28T03:17:27.816Z,99389.75
2022-12-28T03:18:49.437Z,99389.91
2022-12-28T03:20:16.864Z,99393.84
2022-12-28T03:21:38.454Z,99391.31
2022-12-28T03:23:03.315Z,99374.47
2022-12-28T03:24:25.905Z,99380.56
2022-12-28T03:25:48.095Z,99383.16
2022-12-28T03:27:10.303Z,99387.41
2022-12-28T03:28:43.082Z,99385.88
2022-12-28T03:30:08.108Z,99383.97
2022-12-28T03:31:18.009Z,99380.00
2022-12-28T03:32:25.403Z,99393.06
2022-12-28T03:33:27.916Z,99388.94
2022-12-28T03:34:29.932Z,99388.28
2022-12-28T03:35:37.852Z,99378.59
2022-12-28T03:36:48.977Z,99380.72
2022-12-28T03:37:54.121Z,99384.97
2022-12-28T03:39:04.822Z,99381.63
2022-12-28T03:40:19.783Z,99373.81
2022-12-28T03:41:29.072Z,99382.44
2022-12-28T03:43:02.267Z,99384.03
2022-12-28T03:44:08.665Z,99375.97
2022-12-28T03:45:45.738Z,99375.88
2022-12-28T03:46:51.114Z,99373.03
2022-12-28T03:47:54.635Z,99370.22
2022-12-28T03:48:58.536Z,99375.66
2022-12-28T03:50:00.590Z,99372.81
2022-12-28T03:51:02.583Z,99371.56
2022-12-28T03:52:06.772Z,99375.41
2022-12-28T03:53:09.527Z,99374.22
2022-12-28T03:54:16.541Z,99370.97
2022-12-28T03:55:18.714Z,99372.47
2022-12-28T03:56:21.851Z,99371.13
2022-12-28T03:57:24.886Z,99368.09
2022-12-28T03:58:26.782Z,99364.31
2022-12-28T03:59:28.583Z,99366.00
2022-12-28T04:00:31.467Z,99369.84
2022-12-28T04:01:33.473Z,99357.50
2022-12-28T04:02:35.871Z,99362.94
2022-12-28T04:03:38.290Z,99364.38
2022-12-28T04:04:40.162Z,99367.84
2022-12-28T04:05:42.086Z,99368.47
2022-12-28T04:06:45.452Z,99363.72
2022-12-28T04:07:48.553Z,99358.91
2022-12-28T04:08:50.521Z,99360.13
2022-12-28T04:09:52.584Z,99358.00
2022-12-28T04:10:54.505Z,99357.28
2022-12-28T04:11:57.194Z,99359.47
2022-12-28T04:13:09.441Z,99361.59
2022-12-28T04:14:23.327Z,99360.00
2022-12-28T04:15:25.245Z,99351.19
2022-12-28T04:16:27.515Z,99354.03
2022-12-28T04:17:29.773Z,99359.13
2022-12-28T04:18:32.361Z,99355.88
2022-12-28T04:19:34.200Z,99358.00
2022-12-28T04:20:36.478Z,99361.53
2022-12-28T04:21:38.344Z,99357.34
2022-12-28T04:22:42.296Z,99360.00
2022-12-28T04:23:44.199Z,99364.66
2022-12-28T04:24:51.427Z,99359.25
2022-12-28T04:26:03.973Z,99353.66
2022-12-28T04:27:06.911Z,99360.69
2022-12-28T04:28:08.989Z,99363.88
2022-12-28T04:29:41.135Z,99356.66
2022-12-28T04:30:47.820Z,99359.81
2022-12-28T04:31:57.415Z,99348.22
2022-12-28T04:33:00.560Z,99359.28
2022-12-28T04:34:03.301Z,99360.41
2022-12-28T04:35:09.364Z,99350.47
2022-12-28T04:36:19.615Z,99350.41
2022-12-28T04:37:24.523Z,99345.00
2022-12-28T04:38:26.679Z,99340.78
2022-12-28T04:39:28.549Z,99341.13
2022-12-28T04:40:50.508Z,99340.25
2022-12-28T04:41:52.578Z,99345.00
2022-12-28T04:42:54.452Z,99346.69
2022-12-28T04:43:56.470Z,99349.81
2022-12-28T04:44:58.250Z,99339.63
2022-12-28T04:46:01.506Z,99342.13
2022-12-28T04:47:03.438Z,99349.97
2022-12-28T04:48:05.543Z,99348.63
2022-12-28T04:49:07.405Z,99346.44
2022-12-28T04:50:09.327Z,99346.56
2022-12-28T04:51:25.275Z,99347.28
2022-12-28T04:52:27.235Z,99348.75
2022-12-28T04:53:29.161Z,99352.00
2022-12-28T04:54:31.026Z,99350.66
2022-12-28T04:55:34.533Z,99345.22
2022-12-28T04:56:36.491Z,99347.44
2022-12-28T04:57:44.122Z,99348.22
2022-12-28T04:58:48.826Z,99343.25
2022-12-28T04:59:50.767Z,99340.53
2022-12-28T05:00:53.998Z,99334.13
2022-12-28T05:01:56.001Z,99338.50
2022-12-28T05:03:00.843Z,99328.94
2022-12-28T05:04:03.120Z,99334.44
2022-12-28T05:05:05.322Z,99324.25
2022-12-28T05:06:08.577Z,99338.38
2022-12-28T05:07:10.445Z,99332.22
2022-12-28T05:08:15.957Z,99338.81
2022-12-28T05:09:19.668Z,99336.81
2022-12-28T05:10:21.889Z,99345.66
2022-12-28T05:11:25.412Z,99344.97
2022-12-28T05:12:29.900Z,99342.25
2022-12-28T05:13:33.058Z,99336.81
2022-12-28T05:14:37.115Z,99337.50
2022-12-28T05:15:39.620Z,99346.75
2022-12-28T05:16:41.814Z,99341.84
2022-12-28T05:17:43.739Z,99340.72
2022-12-28T05:18:46.277Z,99343.19
2022-12-28T05:19:48.150Z,99341.06
2022-12-28T05:20:50.320Z,99336.81
2022-12-28T05:21:53.560Z,99334.78
2022-12-28T05:22:55.445Z,99342.94
2022-12-28T05:23:59.111Z,99345.16
2022-12-28T05:25:01.191Z,99348.09
2022-12-28T05:26:05.496Z,99350.28
2022-12-28T05:27:07.479Z,99343.31
2022-12-28T05:28:09.676Z,99351.03
2022-12-28T05:29:11.676Z,99348.38
2022-12-28T05:30:13.817Z,99343.19
2022-12-28T05:31:20.902Z,99349.34
2022-12-28T05:32:24.510Z,99353.19
2022-12-28T05:33:26.630Z,99345.16
2022-12-28T05:34:28.698Z,99345.16
2022-12-28T05:35:30.571Z,99347.09
2022-12-28T05:36:34.084Z,99342.94
2022-12-28T05:37:36.079Z,99349.00
2022-12-28T05:38:38.028Z,99347.19
2022-12-28T05:39:39.917Z,99346.75
2022-12-28T05:40:42.007Z,99349.34
2022-12-28T05:41:46.593Z,99345.66
2022-12-28T05:42:51.604Z,99350.09
2022-12-28T05:43:57.825Z,99348.38
2022-12-28T05:45:07.643Z,99353.38
2022-12-28T05:46:16.308Z,99347.19
2022-12-28T05:47:18.235Z,99354.91
2022-12-28T05:48:20.922Z,99348.75
2022-12-28T05:49:22.778Z,99346.59
2022-12-28T05:50:24.673Z,99357.22
2022-12-28T05:51:30.977Z,99351.22
2022-12-28T05:52:32.819Z,99353.66
2022-12-28T05:53:35.548Z,99348.47
2022-12-28T05:54:37.400Z,99351.41
2022-12-28T05:55:39.199Z,99350.94
2022-12-28T05:56:41.038Z,99353.22
2022-12-28T05:57:42.945Z,99350.06
2022-12-28T05:58:45.539Z,99353.66
2022-12-28T05:59:55.046Z,99354.34
2022-12-28T06:01:19.970Z,99346.59
2022-12-28T06:02:25.771Z,99356.09
2022-12-28T06:03:27.784Z,99346.75
2022-12-28T06:04:29.810Z,99354.84
2022-12-28T06:05:31.688Z,99351.84
2022-12-28T06:06:34.034Z,99353.38
2022-12-28T06:07:35.844Z,99355.72
2022-12-28T06:08:38.613Z,99356.16
2022-12-28T06:09:40.375Z,99354.44
2022-12-28T06:10:42.300Z,99358.94
2022-12-28T06:11:44.383Z,99355.38
2022-12-28T06:12:46.193Z,99360.25
2022-12-28T06:13:48.181Z,99357.75
2022-12-28T06:14:50.203Z,99360.81
2022-12-28T06:15:51.987Z,99370.44
2022-12-28T06:16:53.825Z,99359.44
2022-12-28T06:17:55.673Z,99363.75
2022-12-28T06:18:58.065Z,99363.44
2022-12-28T06:20:00.195Z,99364.91
2022-12-28T06:21:03.291Z,99363.75
2022-12-28T06:22:05.223Z,99360.25
2022-12-28T06:23:07.967Z,99360.38
2022-12-28T06:24:12.052Z,99362.38
2022-12-28T06:25:15.833Z,99365.38
2022-12-28T06:26:19.629Z,99363.50
2022-12-28T06:27:51.989Z,99359.59
2022-12-28T06:28:57.294Z,99367.63
2022-12-28T06:30:16.174Z,99362.91
2022-12-28T06:31:38.736Z,99357.19
2022-12-28T06:32:50.771Z,99363.50
2022-12-28T06:37:29.232Z,99365.53
2022-12-28T06:49:12.004Z,99357.53
2022-12-28T06:50:42.590Z,99364.78
2022-12-28T07:16:07.336Z,99363.16
2022-12-28T07:20:14.891Z,99359.88
2022-12-28T07:21:21.645Z,99364.22
2022-12-28T07:22:26.891Z,99363.44
2022-12-28T07:23:31.420Z,99360.00
2022-12-28T07:24:33.477Z,99365.44
2022-12-28T07:25:36.409Z,99365.97
2022-12-28T07:26:38.576Z,99365.72
2022-12-28T07:27:41.921Z,99369.66
2022-12-28T07:28:46.238Z,99373.56
2022-12-28T07:30:01.776Z,99379.06
2022-12-28T07:31:30.031Z,99375.59
2022-12-28T07:32:38.566Z,99378.91
2022-12-28T07:33:44.649Z,99381.88
2022-12-28T07:34:52.967Z,99382.06
2022-12-28T07:35:58.526Z,99378.00
2022-12-28T07:37:03.740Z,99373.03
2022-12-28T07:38:17.941Z,99376.13
2022-12-28T07:39:25.762Z,99377.19
2022-12-28T07:40:53.348Z,99381.84
2022-12-28T07:42:01.558Z,99383.38
2022-12-28T07:43:09.421Z,99381.13
2022-12-28T07:44:29.573Z,99381.66
2022-12-28T07:47:18.103Z,99377.22
2022-12-28T07:48:32.925Z,99374.16
2022-12-28T07:50:12.823Z,99372.47
2022-12-28T07:54:18.848Z,99380.06
2022-12-28T07:56:06.815Z,99386.59
2022-12-28T07:57:40.551Z,99384.56
2022-12-28T08:03:24.332Z,99377.34
2022-12-28T08:05:03.418Z,99377.44
2022-12-28T08:06:40.379Z,99367.41
2022-12-28T08:08:30.923Z,99361.28
2022-12-28T08:09:58.246Z,99368.50
2022-12-28T08:11:22.124Z,99363.91
2022-12-28T08:12:57.076Z,99363.78
2022-12-28T08:16:42.983Z,99362.94
2022-12-28T08:17:48.999Z,99366.28
2022-12-28T08:19:29.229Z,99358.34
2022-12-28T08:20:54.131Z,99357.13
2022-12-28T08:25:29.445Z,99364.06
2022-12-28T08:31:02.589Z,99364.78
2022-12-28T08:32:24.695Z,99363.75
2022-12-28T08:33:55.094Z,99367.28
2022-12-28T08:35:33.772Z,99361.06
2022-12-28T08:37:09.894Z,99369.56
2022-12-28T08:38:30.177Z,99367.75
2022-12-28T08:40:37.838Z,99359.47
2022-12-28T08:41:58.658Z,99360.25
2022-12-28T08:45:28.018Z,99358.19
2022-12-28T08:47:10.228Z,99360.31
2022-12-28T08:48:39.354Z,99358.97
2022-12-28T08:49:57.506Z,99354.28
2022-12-28T08:51:47.084Z,99358.19
2022-12-28T08:53:37.178Z,99356.34
2022-12-28T08:56:58.000Z,99367.28
2022-12-28T08:58:17.382Z,99364.97
2022-12-28T08:59:34.488Z,99367.03
2022-12-28T09:00:48.954Z,99367.03
2022-12-28T09:02:27.784Z,99368.06
2022-12-28T09:03:59.928Z,99356.38
2022-12-28T09:05:11.909Z,99362.72
2022-12-28T09:06:41.451Z,99362.63
2022-12-28T09:08:07.123Z,99356.50
2022-12-28T09:09:39.398Z,99361.19
2022-12-28T09:12:21.113Z,99370.91
2022-12-28T09:13:33.095Z,99368.50
2022-12-28T09:14:49.732Z,99370.44
2022-12-28T09:16:08.954Z,99370.91
2022-12-28T09:17:39.491Z,99375.94
2022-12-28T09:19:22.222Z,99370.69
2022-12-28T09:21:56.682Z,99369.50
2022-12-28T09:23:16.822Z,99361.53
2022-12-28T09:24:41.205Z,99363.78
2022-12-28T09:25:50.530Z,99366.28
2022-12-28T09:26:58.830Z,99365.03
2022-12-28T09:28:13.277Z,99363.56
2022-12-28T09:29:26.610Z,99362.91
2022-12-28T09:30:56.426Z,99371.75
2022-12-28T09:32:09.997Z,99363.06
2022-12-28T09:34:36.392Z,99366.22
2022-12-28T09:35:53.190Z,99366.78
2022-12-28T09:38:25.559Z,99367.56
2022-12-28T09:41:35.652Z,99362.72
2022-12-28T09:42:50.982Z,99359.75
2022-12-28T09:45:56.197Z,99364.09
2022-12-28T09:47:56.868Z,99364.97
2022-12-28T09:49:15.572Z,99367.53
2022-12-28T09:50:36.261Z,99368.66
2022-12-28T09:52:09.982Z,99373.22
2022-12-28T09:53:44.772Z,99362.06
2022-12-28T09:55:13.208Z,99365.47
2022-12-28T09:56:42.447Z,99367.28
2022-12-28T09:57:58.214Z,99370.66
2022-12-28T10:00:56.040Z,99372.97
2022-12-28T10:02:13.540Z,99374.78
2022-12-28T10:03:54.711Z,99375.69
2022-12-28T10:05:25.199Z,99376.13
2022-12-28T10:06:48.764Z,99360.13
2022-12-28T10:08:05.909Z,99365.78
2022-12-28T10:09:49.549Z,99368.78
2022-12-28T10:11:05.564Z,99369.56
2022-12-28T10:12:37.691Z,99362.75
2022-12-28T10:14:20.112Z,99365.16
2022-12-28T10:15:30.041Z,99369.50
2022-12-28T10:16:49.600Z,99369.97
2022-12-28T10:18:07.851Z,99381.31
2022-12-28T10:19:26.945Z,99384.97
2022-12-28T10:20:36.922Z,99379.03
2022-12-28T10:21:45.710Z,99383.09
2022-12-28T10:23:03.147Z,99397.66
2022-12-28T10:24:31.219Z,99387.47
2022-12-28T10:25:31.951Z,99397.84
2022-12-28T10:26:36.529Z,99389.94
2022-12-28T10:27:41.132Z,99398.22
2022-12-28T10:28:58.092Z,99393.41
2022-12-28T10:30:02.121Z,99396.53
2022-12-28T10:31:26.475Z,99400.72
2022-12-28T10:32:47.938Z,99397.25
2022-12-28T10:33:53.510Z,99392.69
2022-12-28T10:35:50.879Z,99397.00
2022-12-28T10:36:58.917Z,99397.47
2022-12-28T10:38:07.675Z,99399.50
2022-12-28T10:39:35.961Z,99395.19
2022-12-28T10:40:41.521Z,99395.66
2022-12-28T10:41:47.760Z,99392.59
2022-12-28T10:42:57.391Z,99391.91
2022-12-28T10:44:38.308Z,99394.06
2022-12-28T10:45:39.475Z,99393.72
2022-12-28T10:46:50.989Z,99392.03
2022-12-28T10:49:24.829Z,99385.75
2022-12-28T10:50:52.536Z,99373.50
2022-12-28T10:52:18.297Z,99372.97
2022-12-28T10:53:25.759Z,99378.00
2022-12-28T10:54:35.710Z,99378.56
2022-12-28T10:55:41.163Z,99377.00
2022-12-28T10:56:49.427Z,99386.00
2022-12-28T10:58:27.457Z,99385.22
2022-12-28T10:59:26.632Z,99389.06
2022-12-28T11:00:29.920Z,99394.06
2022-12-28T11:01:33.414Z,99377.94
2022-12-28T11:02:39.263Z,99382.75
2022-12-28T11:03:56.908Z,99382.94
2022-12-28T11:05:00.865Z,99376.78
2022-12-28T11:06:26.643Z,99369.53
2022-12-28T11:07:53.380Z,99379.53
2022-12-28T11:09:04.127Z,99381.78
2022-12-28T11:10:29.623Z,99375.75
2022-12-28T11:12:27.065Z,99378.81
2022-12-28T11:14:29.792Z,99391.69
2022-12-28T11:16:07.198Z,99384.06
2022-12-28T11:17:41.889Z,99383.84
2022-12-28T11:20:19.739Z,99382.22
2022-12-28T11:23:40.493Z,99383.00
2022-12-28T11:36:42.868Z,99388.50
2022-12-28T11:37:53.997Z,99389.38
2022-12-28T11:38:59.477Z,99388.03
2022-12-28T11:40:03.788Z,99384.91
2022-12-28T11:41:14.417Z,99389.53
2022-12-28T11:42:40.417Z,99391.72
2022-12-28T11:43:54.130Z,99388.78
2022-12-28T11:44:56.022Z,99394.66
2022-12-28T11:46:02.682Z,99388.19
2022-12-28T11:47:07.077Z,99398.53
2022-12-28T11:48:41.119Z,99390.69
2022-12-28T11:49:44.097Z,99392.59
2022-12-28T11:50:52.820Z,99394.19
2022-12-28T11:52:18.017Z,99395.53
2022-12-28T11:53:25.406Z,99378.41
2022-12-28T11:54:51.961Z,99381.47
2022-12-28T11:56:01.586Z,99391.22
2022-12-28T11:57:15.283Z,99388.91
2022-12-28T11:58:30.480Z,99397.41
2022-12-28T11:59:35.521Z,99391.84
2022-12-28T12:00:58.162Z,99394.34
2022-12-28T12:02:02.558Z,99394.34
2022-12-28T12:03:05.736Z,99397.19
2022-12-28T12:04:31.705Z,99406.56
2022-12-28T12:05:39.595Z,99404.53
2022-12-28T12:06:48.288Z,99404.81
2022-12-28T12:07:50.321Z,99404.28
2022-12-28T12:08:52.519Z,99409.06
2022-12-28T12:10:15.572Z,99404.75
2022-12-28T12:11:22.561Z,99414.13
2022-12-28T12:12:28.290Z,99415.38
2022-12-28T12:13:33.522Z,99406.91
2022-12-28T12:15:00.436Z,99411.44
2022-12-28T12:16:08.112Z,99414.88
2022-12-28T12:17:12.083Z,99413.50
2022-12-28T12:18:21.179Z,99423.38
2022-12-28T12:19:27.076Z,99423.50
2022-12-28T12:20:49.019Z,99419.63
2022-12-28T12:22:01.537Z,99428.28
2022-12-28T12:23:10.218Z,99423.31
2022-12-28T12:24:18.773Z,99430.13
2022-12-28T12:25:41.340Z,99428.97
2022-12-28T12:26:48.128Z,99436.91
2022-12-28T12:28:01.100Z,99425.47
2022-12-28T12:29:19.746Z,99430.78
2022-12-28T12:30:24.520Z,99435.72
2022-12-28T12:31:34.037Z,99434.19
2022-12-28T12:32:58.243Z,99430.75
2022-12-28T12:34:07.515Z,99432.13
2022-12-28T12:35:18.798Z,99431.88
2022-12-28T12:36:27.324Z,99427.06
2022-12-28T12:37:48.395Z,99426.44
2022-12-28T12:39:06.581Z,99427.47
2022-12-28T12:40:10.791Z,99434.13
2022-12-28T12:41:26.171Z,99429.06
2022-12-28T12:42:39.666Z,99432.50
2022-12-28T12:43:51.164Z,99434.22
2022-12-28T12:45:15.099Z,99434.63
2022-12-28T12:46:45.756Z,99446.22
2022-12-28T12:48:11.534Z,99446.78
2022-12-28T12:49:32.151Z,99444.75
2022-12-28T12:50:34.015Z,99458.31
2022-12-28T12:51:38.563Z,99455.91
2022-12-28T12:52:53.274Z,99454.16
2022-12-28T12:54:04.496Z,99457.47
2022-12-28T12:55:20.346Z,99462.13
2022-12-28T12:56:29.677Z,99452.81
2022-12-28T12:57:40.964Z,99461.44
2022-12-28T12:58:48.925Z,99464.53
2022-12-28T12:59:50.794Z,99466.28
2022-12-28T13:00:55.710Z,99467.88
2022-12-28T13:02:12.742Z,99457.97
2022-12-28T13:03:21.851Z,99466.75
2022-12-28T13:04:29.906Z,99466.88
2022-12-28T13:05:42.552Z,99468.00
2022-12-28T13:07:11.131Z,99472.41
2022-12-28T13:10:57.663Z,99473.84
2022-12-28T13:12:30.784Z,99476.00
2022-12-28T13:21:21.762Z,99477.94
2022-12-28T13:22:34.236Z,99474.09
2022-12-28T13:23:45.155Z,99476.94
2022-12-28T13:24:52.738Z,99476.88
2022-12-28T13:27:57.682Z,99480.75
2022-12-28T13:31:23.339Z,99485.00
2022-12-28T13:33:03.607Z,99489.91
2022-12-28T13:34:47.901Z,99488.66
2022-12-28T13:36:43.543Z,99490.78
2022-12-28T13:38:10.579Z,99494.22
2022-12-28T13:39:30.486Z,99495.63
2022-12-28T13:41:38.044Z,99494.03
2022-12-28T13:42:59.175Z,99488.34
2022-12-28T13:44:17.247Z,99495.75
2022-12-28T13:45:24.623Z,99494.19
2022-12-28T13:46:38.301Z,99494.66
2022-12-28T13:47:46.957Z,99492.94
2022-12-28T13:48:53.252Z,99497.09
2022-12-28T13:49:59.140Z,99498.22
2022-12-28T13:51:01.133Z,99503.72
2022-12-28T13:52:25.428Z,99502.13
2022-12-28T13:53:39.959Z,99508.91
2022-12-28T13:54:51.282Z,99510.22
2022-12-28T13:56:00.151Z,99513.16
2022-12-28T13:57:44.527Z,99508.91
2022-12-28T13:58:34.139Z,99507.84
2022-12-28T13:59:38.989Z,99512.16
2022-12-28T14:00:46.142Z,99512.22
2022-12-28T14:01:50.957Z,99513.97
2022-12-28T14:03:01.362Z,99511.03
2022-12-28T14:04:50.627Z,99519.25
2022-12-28T14:05:32.310Z,99511.63
2022-12-28T14:06:39.330Z,99516.47
2022-12-28T14:07:41.641Z,99512.63
2022-12-28T14:08:46.246Z,99515.66
2022-12-28T14:09:50.506Z,99524.44
2022-12-28T14:10:52.754Z,99518.66
2022-12-28T14:11:58.760Z,99516.75
2022-12-28T14:13:04.562Z,99519.13
2022-12-28T14:14:16.690Z,99519.63
2022-12-28T14:15:20.295Z,99518.47
2022-12-28T14:16:23.212Z,99518.47
2022-12-28T14:17:26.126Z,99520.81
2022-12-28T14:18:33.775Z,99523.19
2022-12-28T14:19:38.448Z,99528.28
2022-12-28T14:20:54.347Z,99528.03
2022-12-28T14:21:56.578Z,99515.66
2022-12-28T14:23:17.526Z,99528.69
2022-12-28T14:24:20.535Z,99525.38
2022-12-28T14:25:28.355Z,99536.25
2022-12-28T14:26:34.794Z,99526.63
2022-12-28T14:27:40.134Z,99523.78
2022-12-28T14:28:48.365Z,99527.94
2022-12-28T14:29:51.178Z,99528.44
2022-12-28T14:30:57.112Z,99531.75
2022-12-28T14:32:03.059Z,99531.94
2022-12-28T14:33:24.596Z,99530.03
2022-12-28T14:34:31.508Z,99539.84
2022-12-28T14:35:37.308Z,99536.13
2022-12-28T14:36:48.252Z,99533.88
2022-12-28T14:37:55.344Z,99537.72
2022-12-28T14:39:04.759Z,99535.06
2022-12-28T14:40:29.055Z,99534.47
2022-12-28T14:41:46.076Z,99537.00
2022-12-28T14:42:52.205Z,99538.00
2022-12-28T14:44:00.072Z,99533.53
2022-12-28T14:45:22.415Z,99538.41
2022-12-28T14:46:33.917Z,99534.94
2022-12-28T14:47:53.423Z,99534.13
2022-12-28T14:49:02.579Z,99543.03
2022-12-28T14:50:18.448Z,99542.19
2022-12-28T14:51:29.933Z,99546.72
2022-12-28T14:52:44.625Z,99547.00
2022-12-28T14:54:15.000Z,99542.50
2022-12-28T14:55:28.254Z,99555.72
2022-12-28T14:56:38.579Z,99552.44
2022-12-28T14:57:48.475Z,99547.16
2022-12-28T14:58:58.417Z,99548.75
2022-12-28T15:00:14.654Z,99551.19
2022-12-28T15:01:25.749Z,99543.94
2022-12-28T15:02:47.886Z,99550.19
2022-12-28T15:04:01.593Z,99551.03
2022-12-28T15:05:40.113Z,99561.09
2022-12-28T15:06:45.835Z,99556.97
2022-12-28T15:07:50.026Z,99557.72
2022-12-28T15:09:06.869Z,99550.84
2022-12-28T15:10:35.595Z,99554.59
2022-12-28T15:11:42.820Z,99559.00
2022-12-28T15:12:48.347Z,99566.47
2022-12-28T15:13:58.885Z,99563.75
2022-12-28T15:15:12.710Z,99559.22
2022-12-28T15:16:34.430Z,99564.66
2022-12-28T15:17:42.868Z,99571.16
2022-12-28T15:19:16.410Z,99568.63
2022-12-28T15:20:43.172Z,99571.69
2022-12-28T15:23:24.290Z,99580.25
2022-12-28T15:32:29.927Z,99569.97
2022-12-28T15:36:19.247Z,99576.78
2022-12-28T15:40:46.768Z,99575.00
2022-12-28T15:42:22.627Z,99580.91
2022-12-28T15:43:43.755Z,99572.63
2022-12-28T15:47:07.745Z,99578.75
2022-12-28T15:48:49.009Z,99582.72
2022-12-28T15:50:27.275Z,99574.34
2022-12-28T15:52:34.263Z,99587.25
2022-12-28T15:54:47.325Z,99591.44
2022-12-28T15:58:07.045Z,99589.63
2022-12-28T16:02:30.947Z,99598.84
2022-12-28T16:04:23.507Z,99603.31
2022-12-28T16:08:16.964Z,99597.09
2022-12-28T16:09:21.195Z,99599.66
2022-12-28T16:18:56.590Z,99595.09
2022-12-28T16:20:17.463Z,99602.53